• Join FlightAware (Why Join?)
  • Login
  • US Flag 
01:42AM EST


 

Airport Tracker/Info


-or-


 

Live Flight TrackerFlight Track Log ✈ ASQ5745 ✈ 20-May-2013 ✈ KIAD - KALB

Flight Track Log - Related Links

Times and Time Zones

All times are in EDT time to prevent confusion due to time zone crossing. See the ASQ5745 flight status page for this flight to view local times or setup timezone preferences in your user account.

Time Position Orientation Groundspeed Altitude Reporting Facility
EDT Latitude Longitude Course Direction KTS MPH feet Rate Location/Type
08:36AM 38.9667 -77.5333 North 197 227 2,300  Level Potomac TRACON
08:37AM 39.0333 -77.5833 330° Northwest 277 319 4,400 2,400 Climbing Potomac TRACON
08:38AM 39.1167 -77.5833 360° North 286 329 7,100 2,040 Climbing Potomac TRACON
08:40AM 39.2847 -77.5731 North 292 336 11,000 1,200 Climbing Washington Center
08:41AM 39.3831 -77.5517 10° North 321 369 11,000 1,200 Level Washington Center
08:42AM 39.4159 -77.4500 North  Level FlightAware Approximate
08:42AM 39.4858 -77.5114 17° North 357 411 13,400  Level Washington Center
08:44AM 39.6758 -77.4553 13° North 376 433 16,200 1,380 Climbing New York Center
08:45AM 39.7928 -77.4528 North 373 429 17,600 1,200 Climbing New York Center
08:46AM 39.8889 -77.4511 North 373 429 18,700 660 Climbing New York Center
08:47AM 40.0078 -77.4492 North 385 443 19,000 120 Climbing New York Center
08:48AM 40.1081 -77.4478 North 390 449 19,000  Level New York Center
08:49AM 40.2197 -77.3906 21° North 383 441 19,000  Level New York Center
08:50AM 40.3031 -77.3142 35° Northeast 399 459 19,000  Level New York Center
08:51AM 40.4061 -77.2231 34° Northeast 399 459 19,000  Level New York Center
08:52AM 40.4875 -77.1433 37° Northeast 408 470 19,000  Level New York Center
08:53AM 40.5928 -77.0492 34° Northeast 403 464 19,000  Level New York Center
08:54AM 40.6739 -76.9717 36° Northeast 403 464 19,000  Level New York Center
08:55AM 40.7767 -76.8767 35° Northeast 403 464 19,000  Level New York Center
08:56AM 40.8686 -76.7917 35° Northeast 403 464 19,000  Level New York Center
08:57AM 40.9431 -76.7214 35° Northeast 403 464 19,000  Level New York Center
08:58AM 41.0461 -76.6203 36° Northeast 403 464 19,000  Level New York Center
08:59AM 41.1467 -76.5214 37° Northeast 409 471 19,000  Level New York Center
09:00AM 41.2406 -76.4356 34° Northeast 404 465 19,000  Level New York Center
09:01AM 41.3342 -76.3467 35° Northeast 404 465 19,000  Level New York Center
09:02AM 41.4192 -76.2653 36° Northeast 404 465 19,000 -60 Level New York Center
09:03AM 41.4933 -76.1494 49° Northeast 404 465 18,900 -300 Descending New York Center
09:04AM 41.5744 -76.0144 51° Northeast 414 476 18,400 -540 Descending New York Center
09:05AM 41.6467 -75.8869 53° Northeast 425 489 17,900 -420 Descending New York Center
09:06AM 41.7228 -75.7594 51° Northeast 425 489 17,600 -300 Descending New York Center
09:08AM 41.8647 -75.5122 52° Northeast 449 517 17,000 -180 Descending Boston Center
09:09AM 41.9369 -75.3875 52° Northeast 437 503 17,100  Climbing Boston Center
09:10AM 42.0089 -75.2567 53° Northeast 431 496 17,100 -120 Level Boston Center
09:11AM 42.0808 -75.1283 53° Northeast 431 496 16,900 -120 Descending Boston Center
09:12AM 42.1525 -75.0081 51° Northeast 425 489 16,900 -240 Level Boston Center
09:13AM 42.2089 -74.9039 54° Northeast 425 489 16,500 -1,200 Descending Boston Center
09:14AM 42.2853 -74.7497 56° Northeast 413 475 14,600 -1,800 Descending Boston Center
09:15AM 42.3394 -74.6394 56° Northeast 391 450 13,300 -1,620 Descending Boston Center
09:16AM 42.3914 -74.5344 56° Northeast 395 455 11,900 -1,620 Descending Boston Center
09:16AM 42.4111 -74.4900 59° Northeast 397 457 11,400 -1,020 Descending Boston Center
09:17AM 42.4522 -74.4097 55° Northeast 395 455 10,900 -420 Descending Boston Center
09:17AM 42.4736 -74.3656 57° Northeast 397 457 11,000 -120 Climbing Boston Center
09:18AM 42.5250 -74.2911 47° Northeast 375 432 10,800 -600 Descending Boston Center
09:18AM 42.5461 -74.2719 34° Northeast 372 428 10,400 -1,200 Descending Boston Center
09:19AM 42.5950 -74.2169 40° Northeast 301 346 9,600 -1,320 Descending Boston Center
09:19AM 42.6119 -74.1919 47° Northeast 336 387 9,100 -1,980 Descending Boston Center
09:20AM 42.6586 -74.1425 38° Northeast 287 330 7,600 -2,040 Descending Boston Center
09:20AM 42.6733 -74.1258 40° Northeast 294 338 7,100 -1,920 Descending Boston Center
09:21AM 42.7200 -74.0792 36° Northeast 281 323 5,700 -1,620 Descending Boston Center
09:21AM 42.7306 -74.0681 38° Northeast 284 327 5,500 -1,560 Descending Boston Center
09:22AM 42.7856 -74.0103 38° Northeast 267 307 4,000 -1,200 Descending Boston Center
09:23AM 42.8489 -73.9439 38° Northeast 245 282 3,200 -720 Descending Boston Center
09:23AM 42.8489 -73.9439 38° Northeast 273 314 3,200 -420 Level Boston Center
09:24AM 42.8914 -73.8797 48° Northeast 223 257 2,800 -660 Descending Boston Center
09:25AM 42.8714 -73.8142 113° Southeast 217 250 2,000 -900 Descending Boston Center